createdAt,value
2023-01-27T00:05:50.995Z,17.96
2023-01-27T00:34:35.512Z,17.94
2023-01-27T01:03:18.225Z,17.91
2023-01-27T01:31:58.969Z,17.88
2023-01-27T02:00:46.189Z,17.86
2023-01-27T02:29:24.770Z,17.85
2023-01-27T02:58:10.225Z,17.82
2023-01-27T03:26:55.142Z,17.8
2023-01-27T03:55:41.846Z,17.77
2023-01-27T04:24:19.189Z,17.75
2023-01-27T04:52:54.781Z,17.74
2023-01-27T05:21:44.034Z,17.72
2023-01-27T05:50:27.917Z,18.14
2023-01-27T06:19:09.139Z,18.51
2023-01-27T06:47:54.292Z,18.77
2023-01-27T07:16:40.355Z,18.61
2023-01-27T07:45:11.218Z,18.47
2023-01-27T08:13:44.439Z,18.38
2023-01-27T08:42:19.180Z,18.33
2023-01-27T09:10:53.878Z,18.37
2023-01-27T09:39:34.451Z,18.29
2023-01-27T10:08:10.360Z,18.24
2023-01-27T10:36:52.529Z,18.29
2023-01-27T11:05:33.583Z,18.41
2023-01-27T11:34:03.914Z,18.38
2023-01-27T12:02:45.275Z,18.37
2023-01-27T12:31:05.375Z,18.5
2023-01-27T12:59:36.833Z,18.65
2023-01-27T13:28:07.896Z,18.78
2023-01-27T13:56:35.867Z,18.95
2023-01-27T14:25:20.121Z,19.08
2023-01-27T14:53:43.489Z,19.11
2023-01-27T15:22:10.310Z,19.06
2023-01-27T15:50:46.031Z,19.11
2023-01-27T16:19:22.629Z,19.04
2023-01-27T16:47:56.102Z,18.94
2023-01-27T17:16:28.814Z,18.83
2023-01-27T17:45:08.601Z,18.73
2023-01-27T18:13:43.771Z,18.63
2023-01-27T18:42:25.695Z,18.55
2023-01-27T19:11:02.880Z,18.49
2023-01-27T19:39:42.796Z,18.42
2023-01-27T20:08:30.219Z,18.37
2023-01-27T20:37:12.075Z,18.32
2023-01-27T21:05:51.986Z,18.27
2023-01-27T21:34:32.573Z,18.23
2023-01-27T22:03:13.872Z,18.18
2023-01-27T22:31:48.870Z,18.14
2023-01-27T23:00:25.871Z,18.11
2023-01-27T23:28:58.387Z,18.07
2023-01-27T23:57:41.448Z,18.04
